»·PEaware :: N416JK S36-KORS

N416JK :: S36-KORS

FLIGHT INFORMATION

Flight Status: Arrived
Operator: Privately registered:
United States
More flights under this callsign
Pilot: John K. (4202)
Aircraft: BRITTEN NORMAN BN-2 ISLANDER DEFENDER
(BN2P)
More flights by this aircraft type
Origin: S36 Norman Grier Field
United States
Destination: KORS Orcas Island
United States
More flights between these airports :: More routes between these airports
Route: +SEA V495 DIGGN V165 ISLND
File this flight plan on PilotEdge
Remarks:
Altitude:
(Current/Filed)
6,000ft
Speed:
(Current/Filed)
130kts
Departed: 09-May-20 12:38 PM
Arrived: 09-May-20 01:28 PM
Distance/Time
Traveled:
88nm/0:50
Distance/Time
To Go:
Arrived

Flight Plot

Page will automatically refresh every two minutes.

Flight plan parsing failed; only flown route is shown


Map Options




Map Legend


Flown Route
Filed Route
Departure Airport
Arrival Airport
Navaid (VOR, NDB)
Fix

Horizontal Profiles

Position Reports

Time Latitude Longitude Heading Altitude Ground
Speed
09-May-20 12:30 47.340182 -122.103771 171 475ft 0kts
09-May-20 12:31 47.340182 -122.103771 171 475ft 0kts
09-May-20 12:32 47.340182 -122.103771 171 475ft 0kts
09-May-20 12:33 47.340803 -122.103845 246 475ft 7kts
09-May-20 12:34 47.335347 -122.102888 170 475ft 26kts
09-May-20 12:35 47.333299 -122.102345 190 475ft 0kts
09-May-20 12:36 47.333299 -122.102345 190 475ft 0kts
09-May-20 12:37 47.334052 -122.102834 353 475ft 43kts
09-May-20 12:38 47.347005 -122.113023 312 796ft 102kts
09-May-20 12:39 47.358677 -122.140853 308 1468ft 118kts
09-May-20 12:40 47.370899 -122.166743 306 2441ft 110kts
09-May-20 12:42 47.382960 -122.193055 305 3286ft 110kts
09-May-20 12:43 47.385090 -122.197745 305 3436ft 110kts
09-May-20 12:44 47.394083 -122.217643 304 4070ft 108kts
09-May-20 12:45 47.408526 -122.249797 303 5119ft 103kts
09-May-20 12:46 47.422185 -122.280288 300 6151ft 99kts
09-May-20 12:47 47.433818 -122.305683 312 7055ft 94kts
09-May-20 12:48 47.457073 -122.331405 317 6950ft 106kts
09-May-20 12:49 47.485469 -122.364860 341 5966ft 113kts
09-May-20 12:50 47.518943 -122.386166 331 6001ft 152kts
09-May-20 12:51 47.560688 -122.420990 328 5990ft 156kts
09-May-20 12:52 47.601530 -122.456990 327 5991ft 155kts
09-May-20 12:53 47.639297 -122.490576 327 5991ft 155kts
09-May-20 12:54 47.676121 -122.523411 327 5991ft 155kts
09-May-20 12:55 47.712174 -122.555617 327 6000ft 155kts
09-May-20 12:56 47.744839 -122.584853 328 6019ft 156kts
09-May-20 12:57 47.778669 -122.615169 329 6036ft 154kts
09-May-20 12:58 47.814979 -122.647752 330 6037ft 153kts
09-May-20 12:58 47.844924 -122.674646 328 6009ft 154kts
09-May-20 12:59 47.880110 -122.706306 329 6009ft 153kts
09-May-20 13:01 47.920352 -122.742559 329 6009ft 153kts
09-May-20 13:02 47.953002 -122.762813 356 6010ft 150kts
09-May-20 13:02 47.987691 -122.760283 1 6010ft 149kts
09-May-20 13:03 48.029017 -122.755032 1 6009ft 148kts
09-May-20 13:04 48.070382 -122.749283 2 6010ft 149kts
09-May-20 13:05 48.112207 -122.743386 7 6008ft 151kts
09-May-20 13:06 48.153940 -122.737428 1 6009ft 150kts
09-May-20 13:07 48.194891 -122.731579 2 6064ft 151kts
09-May-20 13:08 48.236899 -122.725585 2 6045ft 151kts
09-May-20 13:09 48.279053 -122.717420 5 6045ft 150kts
09-May-20 13:10 48.320796 -122.708869 5 6045ft 149kts
09-May-20 13:11 48.361835 -122.700448 5 6045ft 150kts
09-May-20 13:12 48.404223 -122.691739 5 5519ft 167kts
09-May-20 13:13 48.443599 -122.709085 330 4499ft 135kts
09-May-20 13:14 48.474326 -122.732167 329 4014ft 105kts
09-May-20 13:15 48.498440 -122.750491 329 4025ft 93kts
09-May-20 13:16 48.521719 -122.768225 338 4018ft 95kts
09-May-20 13:17 48.545044 -122.786200 332 3936ft 96kts
09-May-20 13:18 48.563505 -122.805021 326 3371ft 75kts
09-May-20 13:19 48.580821 -122.820023 324 2598ft 73kts
09-May-20 13:20 48.597602 -122.835301 326 2126ft 70kts
09-May-20 13:21 48.614290 -122.851306 329 1969ft 80kts
09-May-20 13:22 48.633169 -122.866403 329 1893ft 77kts
09-May-20 13:23 48.651977 -122.881506 327 1717ft 75kts
09-May-20 13:24 48.666740 -122.900241 317 1290ft 63kts
09-May-20 13:25 48.680916 -122.909780 349 698ft 65kts
09-May-20 13:26 48.698277 -122.910591 358 240ft 62kts
09-May-20 13:27 48.707210 -122.910042 163 27ft 4kts
09-May-20 13:28 48.706263 -122.909580 172 30ft 0kts

Navigation Log

Ident Type
Flight plan parsing failed, navigation log unavailable